sensor_id;sensor_type;location;lat;lon;timestamp;pressure;altitude;pressure_sealevel;temperature;humidity
44079;BME280;29744;49.078;12.878;2023-05-02T00:00:06;96369.22;;;15.11;39.05
44079;BME280;29744;49.078;12.878;2023-05-02T00:05:07;96364.94;;;15.10;38.84
44079;BME280;29744;49.078;12.878;2023-05-02T00:10:08;96371.94;;;15.11;39.21
44079;BME280;29744;49.078;12.878;2023-05-02T00:15:08;96386.22;;;15.11;39.00
44079;BME280;29744;49.078;12.878;2023-05-02T00:20:10;96374.63;;;15.11;39.34
44079;BME280;29744;49.078;12.878;2023-05-02T00:25:11;96380.38;;;15.09;39.06
44079;BME280;29744;49.078;12.878;2023-05-02T00:30:16;96384.19;;;15.08;39.10
44079;BME280;29744;49.078;12.878;2023-05-02T00:35:17;96389.59;;;15.08;38.96
44079;BME280;29744;49.078;12.878;2023-05-02T00:40:17;96389.59;;;15.08;39.35
44079;BME280;29744;49.078;12.878;2023-05-02T00:45:17;96381.81;;;15.07;39.09
44079;BME280;29744;49.078;12.878;2023-05-02T00:50:17;96380.22;;;15.06;38.96
44079;BME280;29744;49.078;12.878;2023-05-02T00:55:18;96392.63;;;15.07;39.42
44079;BME280;29744;49.078;12.878;2023-05-02T01:00:18;96395.31;;;15.07;38.87
44079;BME280;29744;49.078;12.878;2023-05-02T01:05:31;96401.84;;;15.06;39.09
44079;BME280;29744;49.078;12.878;2023-05-02T01:15:41;96392.16;;;15.05;39.04
44079;BME280;29744;49.078;12.878;2023-05-02T01:20:43;96402.16;;;15.04;39.16
44079;BME280;29744;49.078;12.878;2023-05-02T01:31:05;96416.78;;;15.03;38.97
44079;BME280;29744;49.078;12.878;2023-05-02T01:36:06;96424.09;;;15.03;39.11
44079;BME280;29744;49.078;12.878;2023-05-02T01:41:08;96420.28;;;15.04;38.84
44079;BME280;29744;49.078;12.878;2023-05-02T01:46:10;96422.19;;;15.03;38.81
44079;BME280;29744;49.078;12.878;2023-05-02T01:51:14;96423.31;;;15.02;39.35
44079;BME280;29744;49.078;12.878;2023-05-02T01:56:18;96427.88;;;15.02;39.13
44079;BME280;29744;49.078;12.878;2023-05-02T02:01:21;96430.59;;;15.02;39.19
44079;BME280;29744;49.078;12.878;2023-05-02T02:06:24;96426.31;;;15.01;39.25
44079;BME280;29744;49.078;12.878;2023-05-02T02:11:34;96430.13;;;15.00;38.92
44079;BME280;29744;49.078;12.878;2023-05-02T02:16:37;96434.41;;;15.01;39.06
44079;BME280;29744;49.078;12.878;2023-05-02T02:21:39;96436.63;;;14.99;39.20
44079;BME280;29744;49.078;12.878;2023-05-02T02:26:41;96436.63;;;14.99;39.20
44079;BME280;29744;49.078;12.878;2023-05-02T02:31:41;96443.16;;;14.98;39.31
44079;BME280;29744;49.078;12.878;2023-05-02T02:36:54;96445.06;;;14.97;38.90
44079;BME280;29744;49.078;12.878;2023-05-02T02:42:03;96455.06;;;14.97;39.29
44079;BME280;29744;49.078;12.878;2023-05-02T02:47:09;96448.88;;;14.96;39.00
44079;BME280;29744;49.078;12.878;2023-05-02T02:52:20;96454.28;;;14.96;38.84
44079;BME280;29744;49.078;12.878;2023-05-02T02:57:47;96468.44;;;14.93;38.89
44079;BME280;29744;49.078;12.878;2023-05-02T03:02:51;96465.41;;;14.95;39.20
44079;BME280;29744;49.078;12.878;2023-05-02T03:07:53;96469.22;;;14.94;39.03
44079;BME280;29744;49.078;12.878;2023-05-02T03:12:53;96466.84;;;14.92;39.04
44079;BME280;29744;49.078;12.878;2023-05-02T03:17:54;96471.94;;;14.94;38.92
44079;BME280;29744;49.078;12.878;2023-05-02T03:22:54;96466.84;;;14.92;39.34
44079;BME280;29744;49.078;12.878;2023-05-02T03:27:56;96478.44;;;14.93;39.15
44079;BME280;29744;49.078;12.878;2023-05-02T03:32:57;96484.97;;;14.92;39.06
44079;BME280;29744;49.078;12.878;2023-05-02T03:37:57;96484.97;;;14.92;39.01
44079;BME280;29744;49.078;12.878;2023-05-02T03:42:57;96484.97;;;14.92;39.29
44079;BME280;29744;49.078;12.878;2023-05-02T03:47:57;96486.88;;;14.91;39.30
44079;BME280;29744;49.078;12.878;2023-05-02T03:52:58;96489.56;;;14.91;39.05
44079;BME280;29744;49.078;12.878;2023-05-02T03:57:58;96500.38;;;14.91;38.93
44079;BME280;29744;49.078;12.878;2023-05-02T04:03:01;96505.31;;;14.89;38.99
44079;BME280;29744;49.078;12.878;2023-05-02T04:08:02;96515.31;;;14.89;39.08
44079;BME280;29744;49.078;12.878;2023-05-02T04:13:03;96526.59;;;14.91;39.16
44079;BME280;29744;49.078;12.878;2023-05-02T04:18:03;96524.19;;;14.89;38.89
44079;BME280;29744;49.078;12.878;2023-05-02T04:23:03;96533.09;;;14.90;39.02
44079;BME280;29744;49.078;12.878;2023-05-02T04:28:04;96528.50;;;14.90;38.87
44079;BME280;29744;49.078;12.878;2023-05-02T04:33:05;96539.28;;;14.90;39.09
44079;BME280;29744;49.078;12.878;2023-05-02T04:38:06;96543.09;;;14.89;39.12
44079;BME280;29744;49.078;12.878;2023-05-02T04:43:06;96547.38;;;14.90;39.15
44079;BME280;29744;49.078;12.878;2023-05-02T04:48:06;96548.50;;;14.89;38.95
44079;BME280;29744;49.078;12.878;2023-05-02T04:53:06;96546.59;;;14.90;38.83
44079;BME280;29744;49.078;12.878;2023-05-02T04:58:07;96560.09;;;14.90;39.03
44079;BME280;29744;49.078;12.878;2023-05-02T05:03:07;96558.50;;;14.89;38.86
44079;BME280;29744;49.078;12.878;2023-05-02T05:08:08;96569.78;;;14.91;38.77
44079;BME280;29744;49.078;12.878;2023-05-02T05:13:08;96572.16;;;14.92;38.71
44079;BME280;29744;49.078;12.878;2023-05-02T05:18:08;96574.06;;;14.92;39.00
44079;BME280;29744;49.078;12.878;2023-05-02T05:23:09;96580.25;;;14.92;38.94
44079;BME280;29744;49.078;12.878;2023-05-02T05:28:09;96593.44;;;14.94;39.20
44079;BME280;29744;49.078;12.878;2023-05-02T05:33:10;96595.34;;;14.93;38.63
44079;BME280;29744;49.078;12.878;2023-05-02T05:38:10;96595.03;;;14.95;38.62
44079;BME280;29744;49.078;12.878;2023-05-02T05:43:10;96590.41;;;14.95;38.98
44079;BME280;29744;49.078;12.878;2023-05-02T05:48:11;96595.50;;;14.97;38.70
44079;BME280;29744;49.078;12.878;2023-05-02T05:53:11;96597.09;;;14.98;38.87
44079;BME280;29744;49.078;12.878;2023-05-02T05:58:12;96604.41;;;14.97;39.20
44079;BME280;29744;49.078;12.878;2023-05-02T06:03:12;96609.47;;;14.99;38.92
44079;BME280;29744;49.078;12.878;2023-05-02T06:08:12;96605.97;;;14.98;38.64
44079;BME280;29744;49.078;12.878;2023-05-02T06:13:13;96614.56;;;15.00;38.91
44079;BME280;29744;49.078;12.878;2023-05-02T06:18:13;96618.06;;;15.01;38.79
44079;BME280;29744;49.078;12.878;2023-05-02T06:23:14;96613.44;;;15.01;39.08
44079;BME280;29744;49.078;12.878;2023-05-02T06:28:14;96621.25;;;15.03;38.87
44079;BME280;29744;49.078;12.878;2023-05-02T06:33:14;96629.03;;;15.04;38.64
44079;BME280;29744;49.078;12.878;2023-05-02T06:38:15;96622.84;;;15.04;38.53
44079;BME280;29744;49.078;12.878;2023-05-02T06:43:17;96626.00;;;15.06;38.68
44079;BME280;29744;49.078;12.878;2023-05-02T06:48:18;96641.09;;;15.07;38.89
44079;BME280;29744;49.078;12.878;2023-05-02T06:53:18;96649.19;;;15.07;38.58
44079;BME280;29744;49.078;12.878;2023-05-02T06:58:19;96645.38;;;15.08;38.51
44079;BME280;29744;49.078;12.878;2023-05-02T07:03:19;96647.28;;;15.07;39.02
44079;BME280;29744;49.078;12.878;2023-05-02T07:08:19;96651.59;;;15.08;38.60
44079;BME280;29744;49.078;12.878;2023-05-02T07:13:21;96655.06;;;15.09;38.78
44079;BME280;29744;49.078;12.878;2023-05-02T07:18:21;96656.66;;;15.10;38.40
44079;BME280;29744;49.078;12.878;2023-05-02T07:23:22;96661.28;;;15.09;38.52
44079;BME280;29744;49.078;12.878;2023-05-02T07:28:22;96663.66;;;15.11;38.91
44079;BME280;29744;49.078;12.878;2023-05-02T07:33:22;96670.63;;;15.12;38.37
44079;BME280;29744;49.078;12.878;2023-05-02T07:38:23;96672.22;;;15.13;38.30
44079;BME280;29744;49.078;12.878;2023-05-02T07:43:23;96671.13;;;15.14;38.63
44079;BME280;29744;49.078;12.878;2023-05-02T07:48:23;96674.59;;;15.14;38.36
44079;BME280;29744;49.078;12.878;2023-05-02T07:53:24;96680.81;;;15.15;38.76
44079;BME280;29744;49.078;12.878;2023-05-02T07:58:24;96687.00;;;15.16;38.23
44079;BME280;29744;49.078;12.878;2023-05-02T08:03:24;96692.09;;;15.17;38.25
44079;BME280;29744;49.078;12.878;2023-05-02T08:08:25;96704.47;;;15.18;38.33
44079;BME280;29744;49.078;12.878;2023-05-02T08:13:26;96699.88;;;15.19;38.26
44079;BME280;29744;49.078;12.878;2023-05-02T08:18:27;96701.78;;;15.18;38.42
44079;BME280;29744;49.078;12.878;2023-05-02T08:23:27;96696.06;;;15.20;38.69
44079;BME280;29744;49.078;12.878;2023-05-02T08:28:28;96701.59;;;15.23;38.86
44079;BME280;29744;49.078;12.878;2023-05-02T08:33:28;96700.78;;;15.31;39.03
44079;BME280;29744;49.078;12.878;2023-05-02T08:38:29;96702.19;;;15.37;38.97
44079;BME280;29744;49.078;12.878;2023-05-02T08:43:31;96701.06;;;15.47;38.99
44079;BME280;29744;49.078;12.878;2023-05-02T08:48:32;96706.75;;;15.54;39.03
44079;BME280;29744;49.078;12.878;2023-05-02T08:53:35;96710.56;;;15.62;39.10
44079;BME280;29744;49.078;12.878;2023-05-02T08:58:38;96709.25;;;15.68;39.27
44079;BME280;29744;49.078;12.878;2023-05-02T09:03:39;96719.56;;;15.74;39.03
44079;BME280;29744;49.078;12.878;2023-05-02T09:08:40;96727.53;;;15.80;38.73
44079;BME280;29744;49.078;12.878;2023-05-02T09:13:51;96735.47;;;15.85;38.64
44079;BME280;29744;49.078;12.878;2023-05-02T09:18:53;96729.88;;;15.90;38.59
44079;BME280;29744;49.078;12.878;2023-05-02T09:23:55;96734.97;;;15.91;38.52
44079;BME280;29744;49.078;12.878;2023-05-02T09:28:58;96737.34;;;15.93;38.67
44079;BME280;29744;49.078;12.878;2023-05-02T09:34:10;96738.47;;;15.92;38.54
44079;BME280;29744;49.078;12.878;2023-05-02T09:39:15;96743.41;;;15.90;38.69
44079;BME280;29744;49.078;12.878;2023-05-02T09:44:18;96746.44;;;15.88;38.46
44079;BME280;29744;49.078;12.878;2023-05-02T09:49:38;96757.88;;;15.85;38.91
44079;BME280;29744;49.078;12.878;2023-05-02T09:54:39;96754.41;;;15.85;38.87
44079;BME280;29744;49.078;12.878;2023-05-02T09:59:39;96770.16;;;15.83;38.68
44079;BME280;29744;49.078;12.878;2023-05-02T10:04:40;96770.47;;;15.81;38.82
44079;BME280;29744;49.078;12.878;2023-05-02T10:09:43;96777.00;;;15.80;38.56
44079;BME280;29744;49.078;12.878;2023-05-02T10:14:48;96779.69;;;15.80;38.24
44079;BME280;29744;49.078;12.878;2023-05-02T10:20:05;96786.84;;;15.76;38.76
44079;BME280;29744;49.078;12.878;2023-05-02T10:25:06;96784.13;;;15.76;38.79
44079;BME280;29744;49.078;12.878;2023-05-02T10:30:08;96783.34;;;15.75;38.51
44079;BME280;29744;49.078;12.878;2023-05-02T10:35:09;96789.88;;;15.74;38.50
44079;BME280;29744;49.078;12.878;2023-05-02T10:40:10;96787.97;;;15.75;38.68
44079;BME280;29744;49.078;12.878;2023-05-02T10:45:12;96787.50;;;15.73;38.75
44079;BME280;29744;49.078;12.878;2023-05-02T10:50:42;96794.00;;;15.72;38.67
44079;BME280;29744;49.078;12.878;2023-05-02T10:55:43;96794.00;;;15.72;38.34
44079;BME280;29744;49.078;12.878;2023-05-02T11:00:43;96780.03;;;15.70;38.54
44079;BME280;29744;49.078;12.878;2023-05-02T11:06:03;96781.47;;;15.67;38.54
44079;BME280;29744;49.078;12.878;2023-05-02T11:11:40;96784.50;;;15.66;38.40
44079;BME280;29744;49.078;12.878;2023-05-02T11:37:52;96774.78;;;15.65;38.20
44079;BME280;29744;49.078;12.878;2023-05-02T11:42:53;96769.38;;;15.65;38.54
44079;BME280;29744;49.078;12.878;2023-05-02T11:47:56;96771.28;;;15.64;38.51
44079;BME280;29744;49.078;12.878;2023-05-02T11:52:57;96760.47;;;15.64;38.66
44079;BME280;29744;49.078;12.878;2023-05-02T11:57:57;96763.50;;;15.63;38.42
44079;BME280;29744;49.078;12.878;2023-05-02T12:02:57;96758.09;;;15.63;38.69
44079;BME280;29744;49.078;12.878;2023-05-02T12:07:58;96754.91;;;15.61;38.59
44079;BME280;29744;49.078;12.878;2023-05-02T12:13:03;96760.31;;;15.61;38.28
44079;BME280;29744;49.078;12.878;2023-05-02T12:18:05;96753.00;;;15.61;38.30
44079;BME280;29744;49.078;12.878;2023-05-02T12:23:07;96756.03;;;15.60;38.21
44079;BME280;29744;49.078;12.878;2023-05-02T12:28:09;96757.94;;;15.59;38.09
44079;BME280;29744;49.078;12.878;2023-05-02T12:33:09;96747.13;;;15.59;38.35
44079;BME280;29744;49.078;12.878;2023-05-02T12:38:15;96749.84;;;15.59;38.41
44079;BME280;29744;49.078;12.878;2023-05-02T12:43:16;96754.44;;;15.59;38.41
44079;BME280;29744;49.078;12.878;2023-05-02T12:48:26;96753.66;;;15.58;38.46
44079;BME280;29744;49.078;12.878;2023-05-02T12:53:45;96747.47;;;15.58;38.57
44079;BME280;29744;49.078;12.878;2023-05-02T12:58:47;96746.34;;;15.59;38.48
44079;BME280;29744;49.078;12.878;2023-05-02T13:03:49;96736.66;;;15.58;38.62
44079;BME280;29744;49.078;12.878;2023-05-02T13:08:50;96738.56;;;15.57;38.22
44079;BME280;29744;49.078;12.878;2023-05-02T13:13:50;96742.06;;;15.58;38.53
44079;BME280;29744;49.078;12.878;2023-05-02T13:18:50;96749.38;;;15.57;38.29
44079;BME280;29744;49.078;12.878;2023-05-02T13:23:50;96751.28;;;15.57;38.16
44079;BME280;29744;49.078;12.878;2023-05-02T13:28:52;96736.97;;;15.56;38.61
44079;BME280;29744;49.078;12.878;2023-05-02T13:33:52;96750.47;;;15.56;38.08
44079;BME280;29744;49.078;12.878;2023-05-02T13:38:52;96748.56;;;15.57;38.21
44079;BME280;29744;49.078;12.878;2023-05-02T13:43:53;96754.78;;;15.57;38.74
44079;BME280;29744;49.078;12.878;2023-05-02T13:48:54;96758.28;;;15.58;38.33
44079;BME280;29744;49.078;12.878;2023-05-02T13:53:54;96758.28;;;15.58;38.33
44079;BME280;29744;49.078;12.878;2023-05-02T13:58:54;96764.47;;;15.58;38.57
44079;BME280;29744;49.078;12.878;2023-05-02T14:03:55;96769.88;;;15.58;38.22
44079;BME280;29744;49.078;12.878;2023-05-02T14:08:55;96765.25;;;15.59;38.14
44079;BME280;29744;49.078;12.878;2023-05-02T14:13:55;96769.09;;;15.58;38.07
44079;BME280;29744;49.078;12.878;2023-05-02T14:18:57;96773.38;;;15.59;38.64
44079;BME280;29744;49.078;12.878;2023-05-02T14:23:57;96763.69;;;15.58;38.58
44079;BME280;29744;49.078;12.878;2023-05-02T14:28:58;96776.06;;;15.59;38.31
44079;BME280;29744;49.078;12.878;2023-05-02T14:33:58;96769.09;;;15.58;38.73
44079;BME280;29744;49.078;12.878;2023-05-02T14:38:58;96771.78;;;15.58;38.46
44079;BME280;29744;49.078;12.878;2023-05-02T14:43:59;96769.88;;;15.58;38.29
44079;BME280;29744;49.078;12.878;2023-05-02T14:48:59;96777.97;;;15.58;38.66
44079;BME280;29744;49.078;12.878;2023-05-02T14:53:59;96781.00;;;15.57;38.57
44079;BME280;29744;49.078;12.878;2023-05-02T14:59:00;96779.91;;;15.58;38.31
44079;BME280;29744;49.078;12.878;2023-05-02T15:04:00;96784.50;;;15.57;38.41
44079;BME280;29744;49.078;12.878;2023-05-02T15:09:01;96794.53;;;15.57;38.56
44079;BME280;29744;49.078;12.878;2023-05-02T15:14:01;96801.06;;;15.56;38.19
44079;BME280;29744;49.078;12.878;2023-05-02T15:19:01;96808.38;;;15.55;38.64
44079;BME280;29744;49.078;12.878;2023-05-02T15:24:02;96812.19;;;15.54;38.65
44079;BME280;29744;49.078;12.878;2023-05-02T15:29:02;96816.78;;;15.54;38.42
44079;BME280;29744;49.078;12.878;2023-05-02T15:34:03;96810.59;;;15.53;38.38
44079;BME280;29744;49.078;12.878;2023-05-02T15:39:03;96816.78;;;15.54;38.43
44079;BME280;29744;49.078;12.878;2023-05-02T15:44:04;96812.50;;;15.53;38.42
44079;BME280;29744;49.078;12.878;2023-05-02T15:49:04;96822.53;;;15.52;38.65
44079;BME280;29744;49.078;12.878;2023-05-02T15:54:04;96820.94;;;15.51;38.24
44079;BME280;29744;49.078;12.878;2023-05-02T15:59:05;96818.22;;;15.51;38.12
44079;BME280;29744;49.078;12.878;2023-05-02T16:04:06;96824.75;;;15.50;38.40
44079;BME280;29744;49.078;12.878;2023-05-02T16:09:08;96822.03;;;15.50;38.42
44079;BME280;29744;49.078;12.878;2023-05-02T16:14:09;96823.63;;;15.51;38.53
44079;BME280;29744;49.078;12.878;2023-05-02T16:19:10;96823.94;;;15.50;38.53
44079;BME280;29744;49.078;12.878;2023-05-02T16:24:12;96837.00;;;15.48;38.66
44079;BME280;29744;49.078;12.878;2023-05-02T16:29:12;96842.25;;;15.44;38.21
44079;BME280;29744;49.078;12.878;2023-05-02T16:34:13;96860.06;;;15.45;38.47
44079;BME280;29744;49.078;12.878;2023-05-02T16:39:13;96860.38;;;15.43;38.31
44079;BME280;29744;49.078;12.878;2023-05-02T16:44:14;96870.38;;;15.43;38.78
44079;BME280;29744;49.078;12.878;2023-05-02T16:49:14;96876.13;;;15.41;38.66
44079;BME280;29744;49.078;12.878;2023-05-02T16:54:14;96874.03;;;15.38;38.47
44079;BME280;29744;49.078;12.878;2023-05-02T16:59:14;96875.16;;;15.37;38.63
44079;BME280;29744;49.078;12.878;2023-05-02T17:04:15;96882.47;;;15.37;38.73
44079;BME280;29744;49.078;12.878;2023-05-02T17:09:15;96890.56;;;15.37;38.73
44079;BME280;29744;49.078;12.878;2023-05-02T17:14:17;96894.72;;;15.34;38.86
44079;BME280;29744;49.078;12.878;2023-05-02T17:19:18;96887.72;;;15.33;38.43
44079;BME280;29744;49.078;12.878;2023-05-02T17:24:19;96879.59;;;15.33;38.52
44079;BME280;29744;49.078;12.878;2023-05-02T17:29:20;96885.31;;;15.32;38.86
44079;BME280;29744;49.078;12.878;2023-05-02T17:34:20;96889.16;;;15.31;38.47
44079;BME280;29744;49.078;12.878;2023-05-02T17:39:25;96895.34;;;15.31;38.68
44079;BME280;29744;49.078;12.878;2023-05-02T17:44:26;96894.53;;;15.31;38.66
44079;BME280;29744;49.078;12.878;2023-05-02T17:49:26;96891.06;;;15.30;38.58
44079;BME280;29744;49.078;12.878;2023-05-02T17:54:27;96898.38;;;15.30;38.42
44079;BME280;29744;49.078;12.878;2023-05-02T17:59:27;96902.97;;;15.29;38.79
44079;BME280;29744;49.078;12.878;2023-05-02T18:04:27;96902.97;;;15.29;38.77
44079;BME280;29744;49.078;12.878;2023-05-02T18:09:28;96900.59;;;15.28;38.70
44079;BME280;29744;49.078;12.878;2023-05-02T18:14:28;96916.47;;;15.29;38.82
44079;BME280;29744;49.078;12.878;2023-05-02T18:19:28;96920.63;;;15.27;38.65
44079;BME280;29744;49.078;12.878;2023-05-02T18:24:30;96926.00;;;15.27;38.65
44079;BME280;29744;49.078;12.878;2023-05-02T18:29:30;96929.81;;;15.26;38.59
44079;BME280;29744;49.078;12.878;2023-05-02T18:34:34;96932.84;;;15.24;38.60
44079;BME280;29744;49.078;12.878;2023-05-02T18:39:34;96943.97;;;15.23;38.94
44079;BME280;29744;49.078;12.878;2023-05-02T18:44:35;96952.06;;;15.23;38.86
44079;BME280;29744;49.078;12.878;2023-05-02T18:49:35;96965.41;;;15.19;38.62
44079;BME280;29744;49.078;12.878;2023-05-02T18:54:36;96978.31;;;15.22;39.14
44079;BME280;29744;49.078;12.878;2023-05-02T18:59:36;96991.31;;;15.20;38.54
44079;BME280;29744;49.078;12.878;2023-05-02T19:04:37;96998.31;;;15.21;38.78
44079;BME280;29744;49.078;12.878;2023-05-02T19:09:37;97003.72;;;15.21;38.82
44079;BME280;29744;49.078;12.878;2023-05-02T19:14:37;97007.53;;;15.20;39.08
44079;BME280;29744;49.078;12.878;2023-05-02T19:19:39;97014.06;;;15.19;38.95
44079;BME280;29744;49.078;12.878;2023-05-02T19:24:40;97013.25;;;15.19;38.95
44079;BME280;29744;49.078;12.878;2023-05-02T19:29:40;97026.75;;;15.19;38.63
44079;BME280;29744;49.078;12.878;2023-05-02T19:34:41;97031.38;;;15.18;39.14
44079;BME280;29744;49.078;12.878;2023-05-02T19:39:41;97042.97;;;15.19;38.66
44079;BME280;29744;49.078;12.878;2023-05-02T19:44:41;97051.41;;;15.17;39.11
44079;BME280;29744;49.078;12.878;2023-05-02T19:49:41;97053.31;;;15.17;38.81
44079;BME280;29744;49.078;12.878;2023-05-02T19:54:43;97050.59;;;15.17;39.14
44079;BME280;29744;49.078;12.878;2023-05-02T19:59:43;97052.50;;;15.16;39.01
44079;BME280;29744;49.078;12.878;2023-05-02T20:04:43;97048.22;;;15.15;38.78
44079;BME280;29744;49.078;12.878;2023-05-02T20:09:44;97054.41;;;15.16;39.31
44079;BME280;29744;49.078;12.878;2023-05-02T20:14:44;97069.03;;;15.14;39.20
44079;BME280;29744;49.078;12.878;2023-05-02T20:19:44;97075.22;;;15.15;38.75
44079;BME280;29744;49.078;12.878;2023-05-02T20:24:45;97081.75;;;15.14;38.73
44079;BME280;29744;49.078;12.878;2023-05-02T20:29:45;97084.44;;;15.14;39.10
44079;BME280;29744;49.078;12.878;2023-05-02T20:34:45;97086.34;;;15.13;39.16
44079;BME280;29744;49.078;12.878;2023-05-02T20:39:46;97090.94;;;15.13;39.03
44079;BME280;29744;49.078;12.878;2023-05-02T20:44:46;97105.25;;;15.13;39.10
44079;BME280;29744;49.078;12.878;2023-05-02T20:49:52;97095.56;;;15.12;38.91
44079;BME280;29744;49.078;12.878;2023-05-02T20:54:53;97100.16;;;15.12;38.88
44079;BME280;29744;49.078;12.878;2023-05-02T20:59:55;97100.97;;;15.12;38.87
44079;BME280;29744;49.078;12.878;2023-05-02T21:04:58;97101.75;;;15.13;38.96
44079;BME280;29744;49.078;12.878;2023-05-02T21:09:58;97110.97;;;15.12;39.25
44079;BME280;29744;49.078;12.878;2023-05-02T21:14:58;97104.75;;;15.11;39.23
44079;BME280;29744;49.078;12.878;2023-05-02T21:19:59;97103.97;;;15.11;38.77
44079;BME280;29744;49.078;12.878;2023-05-02T21:24:59;97106.69;;;15.11;39.28
44079;BME280;29744;49.078;12.878;2023-05-02T21:29:59;97114.78;;;15.11;38.86
44079;BME280;29744;49.078;12.878;2023-05-02T21:35:00;97118.28;;;15.11;39.37
44079;BME280;29744;49.078;12.878;2023-05-02T21:40:00;97115.09;;;15.09;39.24
44079;BME280;29744;49.078;12.878;2023-05-02T21:45:01;97120.19;;;15.11;39.13
44079;BME280;29744;49.078;12.878;2023-05-02T21:50:01;97121.28;;;15.10;38.85
44079;BME280;29744;49.078;12.878;2023-05-02T21:55:01;97125.91;;;15.09;39.06
44079;BME280;29744;49.078;12.878;2023-05-02T22:00:02;97124.78;;;15.10;39.12
44079;BME280;29744;49.078;12.878;2023-05-02T22:05:04;97120.50;;;15.09;38.92
44079;BME280;29744;49.078;12.878;2023-05-02T22:10:05;97122.41;;;15.09;39.07
44079;BME280;29744;49.078;12.878;2023-05-02T22:15:07;97120.50;;;15.09;39.13
44079;BME280;29744;49.078;12.878;2023-05-02T22:20:08;97119.69;;;15.09;39.05
44079;BME280;29744;49.078;12.878;2023-05-02T22:25:12;97111.59;;;15.09;39.40
44079;BME280;29744;49.078;12.878;2023-05-02T22:30:12;97116.19;;;15.08;38.75
44079;BME280;29744;49.078;12.878;2023-05-02T22:35:12;97124.31;;;15.08;39.09
44079;BME280;29744;49.078;12.878;2023-05-02T22:40:13;97120.81;;;15.08;39.18
44079;BME280;29744;49.078;12.878;2023-05-02T22:45:14;97124.31;;;15.08;39.02
44079;BME280;29744;49.078;12.878;2023-05-02T22:50:14;97122.69;;;15.07;38.80
44079;BME280;29744;49.078;12.878;2023-05-02T22:55:14;97119.22;;;15.07;39.33
44079;BME280;29744;49.078;12.878;2023-05-02T23:00:15;97120.00;;;15.07;38.76
44079;BME280;29744;49.078;12.878;2023-05-02T23:05:16;97127.31;;;15.07;39.22
44079;BME280;29744;49.078;12.878;2023-05-02T23:10:16;97131.13;;;15.06;38.79
44079;BME280;29744;49.078;12.878;2023-05-02T23:15:16;97123.81;;;15.06;39.02
44079;BME280;29744;49.078;12.878;2023-05-02T23:20:17;97124.59;;;15.07;38.82
44079;BME280;29744;49.078;12.878;2023-05-02T23:25:20;97121.09;;;15.06;38.73
44079;BME280;29744;49.078;12.878;2023-05-02T23:30:21;97119.53;;;15.05;39.27
44079;BME280;29744;49.078;12.878;2023-05-02T23:35:22;97120.31;;;15.06;39.31
44079;BME280;29744;49.078;12.878;2023-05-02T23:40:26;97121.09;;;15.06;38.86
44079;BME280;29744;49.078;12.878;2023-05-02T23:45:27;97111.41;;;15.05;38.88
44079;BME280;29744;49.078;12.878;2023-05-02T23:50:27;97107.59;;;15.06;39.12
44079;BME280;29744;49.078;12.878;2023-05-02T23:55:27;97110.63;;;15.05;39.22
